sensor_id;sensor_type;location;lat;lon;timestamp;P1;durP1;ratioP1;P2;durP2;ratioP2
68910;SDS011;55953;51.650;-0.522;2023-05-23T00:01:46;11.00;;;5.30;;
68910;SDS011;55953;51.650;-0.522;2023-05-23T00:04:14;11.10;;;5.30;;
68910;SDS011;55953;51.650;-0.522;2023-05-23T00:06:45;13.20;;;5.60;;
68910;SDS011;55953;51.650;-0.522;2023-05-23T00:09:13;10.50;;;5.30;;
68910;SDS011;55953;51.650;-0.522;2023-05-23T00:11:43;8.70;;;4.90;;
68910;SDS011;55953;51.650;-0.522;2023-05-23T00:14:13;11.30;;;5.80;;
68910;SDS011;55953;51.650;-0.522;2023-05-23T00:16:43;12.00;;;5.90;;
68910;SDS011;55953;51.650;-0.522;2023-05-23T00:19:12;14.30;;;5.90;;
68910;SDS011;55953;51.650;-0.522;2023-05-23T00:21:46;10.60;;;5.30;;
68910;SDS011;55953;51.650;-0.522;2023-05-23T00:24:18;11.70;;;5.80;;
68910;SDS011;55953;51.650;-0.522;2023-05-23T00:26:47;14.00;;;5.40;;
68910;SDS011;55953;51.650;-0.522;2023-05-23T00:29:15;11.60;;;6.00;;
68910;SDS011;55953;51.650;-0.522;2023-05-23T00:31:44;11.80;;;6.00;;
68910;SDS011;55953;51.650;-0.522;2023-05-23T00:34:15;10.30;;;5.50;;
68910;SDS011;55953;51.650;-0.522;2023-05-23T00:36:46;14.80;;;5.90;;
68910;SDS011;55953;51.650;-0.522;2023-05-23T00:39:15;14.00;;;5.90;;
68910;SDS011;55953;51.650;-0.522;2023-05-23T00:41:48;10.20;;;5.80;;
68910;SDS011;55953;51.650;-0.522;2023-05-23T00:44:19;13.10;;;6.30;;
68910;SDS011;55953;51.650;-0.522;2023-05-23T00:46:54;11.60;;;5.70;;
68910;SDS011;55953;51.650;-0.522;2023-05-23T00:49:23;13.20;;;6.10;;
68910;SDS011;55953;51.650;-0.522;2023-05-23T00:51:54;14.10;;;6.20;;
68910;SDS011;55953;51.650;-0.522;2023-05-23T00:54:25;14.40;;;6.00;;
68910;SDS011;55953;51.650;-0.522;2023-05-23T00:56:56;14.70;;;6.60;;
68910;SDS011;55953;51.650;-0.522;2023-05-23T00:59:25;13.60;;;6.90;;
68910;SDS011;55953;51.650;-0.522;2023-05-23T01:01:55;13.30;;;6.80;;
68910;SDS011;55953;51.650;-0.522;2023-05-23T01:04:24;12.10;;;6.50;;
68910;SDS011;55953;51.650;-0.522;2023-05-23T01:06:54;12.70;;;6.20;;
68910;SDS011;55953;51.650;-0.522;2023-05-23T01:09:24;15.30;;;6.40;;
68910;SDS011;55953;51.650;-0.522;2023-05-23T01:12:07;12.90;;;6.80;;
68910;SDS011;55953;51.650;-0.522;2023-05-23T01:14:51;12.60;;;6.10;;
68910;SDS011;55953;51.650;-0.522;2023-05-23T01:17:54;11.90;;;6.00;;
68910;SDS011;55953;51.650;-0.522;2023-05-23T01:20:30;9.90;;;5.30;;
68910;SDS011;55953;51.650;-0.522;2023-05-23T01:26:45;11.60;;;5.70;;
68910;SDS011;55953;51.650;-0.522;2023-05-23T01:29:34;11.60;;;6.00;;
68910;SDS011;55953;51.650;-0.522;2023-05-23T01:32:09;11.80;;;5.20;;
68910;SDS011;55953;51.650;-0.522;2023-05-23T01:34:40;12.40;;;5.80;;
68910;SDS011;55953;51.650;-0.522;2023-05-23T01:37:10;10.60;;;5.50;;
68910;SDS011;55953;51.650;-0.522;2023-05-23T01:39:38;11.20;;;5.10;;
68910;SDS011;55953;51.650;-0.522;2023-05-23T01:42:07;11.10;;;5.20;;
68910;SDS011;55953;51.650;-0.522;2023-05-23T01:44:35;11.10;;;5.30;;
68910;SDS011;55953;51.650;-0.522;2023-05-23T01:47:06;10.20;;;5.00;;
68910;SDS011;55953;51.650;-0.522;2023-05-23T01:49:36;10.80;;;5.50;;
68910;SDS011;55953;51.650;-0.522;2023-05-23T01:52:05;10.60;;;5.10;;
68910;SDS011;55953;51.650;-0.522;2023-05-23T01:57:05;10.50;;;4.80;;
68910;SDS011;55953;51.650;-0.522;2023-05-23T01:59:33;9.80;;;5.30;;
68910;SDS011;55953;51.650;-0.522;2023-05-23T02:02:01;15.10;;;5.50;;
68910;SDS011;55953;51.650;-0.522;2023-05-23T02:04:29;10.60;;;4.80;;
68910;SDS011;55953;51.650;-0.522;2023-05-23T02:06:58;8.90;;;5.20;;
68910;SDS011;55953;51.650;-0.522;2023-05-23T02:09:26;10.30;;;5.00;;
68910;SDS011;55953;51.650;-0.522;2023-05-23T02:11:54;13.20;;;5.00;;
68910;SDS011;55953;51.650;-0.522;2023-05-23T02:14:22;10.20;;;4.50;;
68910;SDS011;55953;51.650;-0.522;2023-05-23T02:16:50;10.20;;;4.10;;
68910;SDS011;55953;51.650;-0.522;2023-05-23T02:19:19;11.40;;;4.40;;
68910;SDS011;55953;51.650;-0.522;2023-05-23T02:21:47;10.10;;;4.60;;
68910;SDS011;55953;51.650;-0.522;2023-05-23T02:24:15;10.70;;;4.30;;
68910;SDS011;55953;51.650;-0.522;2023-05-23T02:26:44;9.10;;;4.30;;
68910;SDS011;55953;51.650;-0.522;2023-05-23T02:29:12;9.80;;;4.70;;
68910;SDS011;55953;51.650;-0.522;2023-05-23T02:31:40;10.80;;;4.40;;
68910;SDS011;55953;51.650;-0.522;2023-05-23T02:34:08;11.60;;;4.70;;
68910;SDS011;55953;51.650;-0.522;2023-05-23T02:36:36;11.20;;;4.50;;
68910;SDS011;55953;51.650;-0.522;2023-05-23T02:39:04;8.50;;;4.00;;
68910;SDS011;55953;51.650;-0.522;2023-05-23T02:41:33;11.10;;;4.80;;
68910;SDS011;55953;51.650;-0.522;2023-05-23T02:44:01;8.80;;;3.90;;
68910;SDS011;55953;51.650;-0.522;2023-05-23T02:46:29;11.40;;;4.60;;
68910;SDS011;55953;51.650;-0.522;2023-05-23T02:48:57;12.00;;;5.20;;
68910;SDS011;55953;51.650;-0.522;2023-05-23T02:51:26;10.30;;;4.50;;
68910;SDS011;55953;51.650;-0.522;2023-05-23T02:53:54;11.70;;;4.00;;
68910;SDS011;55953;51.650;-0.522;2023-05-23T02:56:22;9.40;;;4.10;;
68910;SDS011;55953;51.650;-0.522;2023-05-23T02:58:50;10.90;;;4.50;;
68910;SDS011;55953;51.650;-0.522;2023-05-23T03:01:19;10.70;;;3.90;;
68910;SDS011;55953;51.650;-0.522;2023-05-23T03:03:48;10.70;;;3.80;;
68910;SDS011;55953;51.650;-0.522;2023-05-23T03:06:16;9.50;;;4.00;;
68910;SDS011;55953;51.650;-0.522;2023-05-23T03:08:44;8.20;;;3.60;;
68910;SDS011;55953;51.650;-0.522;2023-05-23T03:11:12;8.00;;;4.00;;
68910;SDS011;55953;51.650;-0.522;2023-05-23T03:13:43;8.30;;;3.80;;
68910;SDS011;55953;51.650;-0.522;2023-05-23T03:16:11;7.80;;;3.40;;
68910;SDS011;55953;51.650;-0.522;2023-05-23T03:18:39;16.00;;;4.00;;
68910;SDS011;55953;51.650;-0.522;2023-05-23T03:21:10;7.90;;;3.60;;
68910;SDS011;55953;51.650;-0.522;2023-05-23T03:23:38;10.80;;;3.50;;
68910;SDS011;55953;51.650;-0.522;2023-05-23T03:26:06;10.40;;;4.00;;
68910;SDS011;55953;51.650;-0.522;2023-05-23T03:28:34;7.90;;;3.50;;
68910;SDS011;55953;51.650;-0.522;2023-05-23T03:31:02;9.90;;;3.50;;
68910;SDS011;55953;51.650;-0.522;2023-05-23T03:33:30;7.70;;;3.50;;
68910;SDS011;55953;51.650;-0.522;2023-05-23T03:35:58;6.90;;;3.30;;
68910;SDS011;55953;51.650;-0.522;2023-05-23T03:38:26;5.50;;;2.90;;
68910;SDS011;55953;51.650;-0.522;2023-05-23T03:40:54;9.50;;;3.40;;
68910;SDS011;55953;51.650;-0.522;2023-05-23T03:43:22;9.90;;;2.80;;
68910;SDS011;55953;51.650;-0.522;2023-05-23T03:45:50;7.30;;;3.00;;
68910;SDS011;55953;51.650;-0.522;2023-05-23T03:48:18;7.30;;;2.90;;
68910;SDS011;55953;51.650;-0.522;2023-05-23T03:50:46;6.70;;;2.90;;
68910;SDS011;55953;51.650;-0.522;2023-05-23T03:53:14;7.10;;;3.20;;
68910;SDS011;55953;51.650;-0.522;2023-05-23T03:55:43;8.20;;;3.00;;
68910;SDS011;55953;51.650;-0.522;2023-05-23T03:58:11;9.40;;;3.00;;
68910;SDS011;55953;51.650;-0.522;2023-05-23T04:00:39;6.80;;;2.50;;
68910;SDS011;55953;51.650;-0.522;2023-05-23T04:03:08;7.10;;;2.70;;
68910;SDS011;55953;51.650;-0.522;2023-05-23T04:05:37;7.80;;;3.70;;
68910;SDS011;55953;51.650;-0.522;2023-05-23T04:08:05;8.70;;;2.70;;
68910;SDS011;55953;51.650;-0.522;2023-05-23T04:10:33;10.40;;;3.50;;
68910;SDS011;55953;51.650;-0.522;2023-05-23T04:13:01;6.10;;;2.90;;
68910;SDS011;55953;51.650;-0.522;2023-05-23T04:15:29;7.00;;;2.80;;
68910;SDS011;55953;51.650;-0.522;2023-05-23T04:18:02;11.20;;;3.40;;
68910;SDS011;55953;51.650;-0.522;2023-05-23T04:20:30;8.50;;;2.70;;
68910;SDS011;55953;51.650;-0.522;2023-05-23T04:22:59;5.90;;;2.50;;
68910;SDS011;55953;51.650;-0.522;2023-05-23T04:25:27;11.30;;;2.60;;
68910;SDS011;55953;51.650;-0.522;2023-05-23T04:28:16;7.20;;;2.90;;
68910;SDS011;55953;51.650;-0.522;2023-05-23T04:30:44;6.60;;;3.00;;
68910;SDS011;55953;51.650;-0.522;2023-05-23T04:33:12;7.40;;;2.60;;
68910;SDS011;55953;51.650;-0.522;2023-05-23T04:35:40;8.30;;;2.70;;
68910;SDS011;55953;51.650;-0.522;2023-05-23T04:38:08;4.50;;;2.50;;
68910;SDS011;55953;51.650;-0.522;2023-05-23T04:40:36;8.30;;;2.60;;
68910;SDS011;55953;51.650;-0.522;2023-05-23T04:43:14;9.50;;;2.90;;
68910;SDS011;55953;51.650;-0.522;2023-05-23T04:46:09;8.40;;;2.90;;
68910;SDS011;55953;51.650;-0.522;2023-05-23T04:48:40;8.10;;;2.80;;
68910;SDS011;55953;51.650;-0.522;2023-05-23T04:51:09;6.90;;;2.80;;
68910;SDS011;55953;51.650;-0.522;2023-05-23T04:53:56;8.10;;;2.80;;
68910;SDS011;55953;51.650;-0.522;2023-05-23T04:56:25;6.70;;;2.80;;
68910;SDS011;55953;51.650;-0.522;2023-05-23T04:58:54;7.80;;;2.80;;
68910;SDS011;55953;51.650;-0.522;2023-05-23T05:01:24;8.20;;;3.10;;
68910;SDS011;55953;51.650;-0.522;2023-05-23T05:03:53;9.00;;;3.20;;
68910;SDS011;55953;51.650;-0.522;2023-05-23T05:06:22;9.00;;;2.80;;
68910;SDS011;55953;51.650;-0.522;2023-05-23T05:08:50;6.10;;;2.40;;
68910;SDS011;55953;51.650;-0.522;2023-05-23T05:11:21;8.20;;;2.90;;
68910;SDS011;55953;51.650;-0.522;2023-05-23T05:13:49;6.70;;;2.50;;
68910;SDS011;55953;51.650;-0.522;2023-05-23T05:16:17;11.90;;;2.80;;
68910;SDS011;55953;51.650;-0.522;2023-05-23T05:18:45;6.80;;;2.10;;
68910;SDS011;55953;51.650;-0.522;2023-05-23T05:21:13;8.80;;;2.50;;
68910;SDS011;55953;51.650;-0.522;2023-05-23T05:23:41;8.80;;;2.70;;
68910;SDS011;55953;51.650;-0.522;2023-05-23T05:26:10;12.10;;;2.80;;
68910;SDS011;55953;51.650;-0.522;2023-05-23T05:28:37;6.70;;;2.30;;
68910;SDS011;55953;51.650;-0.522;2023-05-23T05:31:05;12.90;;;2.40;;
68910;SDS011;55953;51.650;-0.522;2023-05-23T05:33:35;9.60;;;2.50;;
68910;SDS011;55953;51.650;-0.522;2023-05-23T05:36:09;10.20;;;2.80;;
68910;SDS011;55953;51.650;-0.522;2023-05-23T05:38:37;9.00;;;2.50;;
68910;SDS011;55953;51.650;-0.522;2023-05-23T05:41:05;9.10;;;2.70;;
68910;SDS011;55953;51.650;-0.522;2023-05-23T05:43:39;7.60;;;2.40;;
68910;SDS011;55953;51.650;-0.522;2023-05-23T05:46:06;7.40;;;2.50;;
68910;SDS011;55953;51.650;-0.522;2023-05-23T05:48:34;4.30;;;2.00;;
68910;SDS011;55953;51.650;-0.522;2023-05-23T05:51:06;7.60;;;2.70;;
68910;SDS011;55953;51.650;-0.522;2023-05-23T05:53:34;9.40;;;2.30;;
68910;SDS011;55953;51.650;-0.522;2023-05-23T05:56:02;8.80;;;2.40;;
68910;SDS011;55953;51.650;-0.522;2023-05-23T05:58:32;5.90;;;2.00;;
68910;SDS011;55953;51.650;-0.522;2023-05-23T06:01:07;8.00;;;2.40;;
68910;SDS011;55953;51.650;-0.522;2023-05-23T06:03:36;7.20;;;2.30;;
68910;SDS011;55953;51.650;-0.522;2023-05-23T06:06:04;8.20;;;2.20;;
68910;SDS011;55953;51.650;-0.522;2023-05-23T06:08:33;9.70;;;2.40;;
68910;SDS011;55953;51.650;-0.522;2023-05-23T06:11:01;10.30;;;2.80;;
68910;SDS011;55953;51.650;-0.522;2023-05-23T06:13:30;10.60;;;3.30;;
68910;SDS011;55953;51.650;-0.522;2023-05-23T06:15:58;7.60;;;2.10;;
68910;SDS011;55953;51.650;-0.522;2023-05-23T06:18:26;8.30;;;2.20;;
68910;SDS011;55953;51.650;-0.522;2023-05-23T06:20:54;8.30;;;2.20;;
68910;SDS011;55953;51.650;-0.522;2023-05-23T06:23:22;7.90;;;1.80;;
68910;SDS011;55953;51.650;-0.522;2023-05-23T06:25:50;8.30;;;2.10;;
68910;SDS011;55953;51.650;-0.522;2023-05-23T06:28:18;10.20;;;2.30;;
68910;SDS011;55953;51.650;-0.522;2023-05-23T06:30:46;9.60;;;2.30;;
68910;SDS011;55953;51.650;-0.522;2023-05-23T06:33:14;8.50;;;2.70;;
68910;SDS011;55953;51.650;-0.522;2023-05-23T06:35:43;8.70;;;2.10;;
68910;SDS011;55953;51.650;-0.522;2023-05-23T06:38:10;9.00;;;2.60;;
68910;SDS011;55953;51.650;-0.522;2023-05-23T06:40:39;11.80;;;2.90;;
68910;SDS011;55953;51.650;-0.522;2023-05-23T06:43:08;7.80;;;2.10;;
68910;SDS011;55953;51.650;-0.522;2023-05-23T06:45:59;9.10;;;1.80;;
68910;SDS011;55953;51.650;-0.522;2023-05-23T06:48:28;10.60;;;1.90;;
68910;SDS011;55953;51.650;-0.522;2023-05-23T06:50:56;6.90;;;1.90;;
68910;SDS011;55953;51.650;-0.522;2023-05-23T06:53:25;5.40;;;1.80;;
68910;SDS011;55953;51.650;-0.522;2023-05-23T06:55:52;6.40;;;1.80;;
68910;SDS011;55953;51.650;-0.522;2023-05-23T06:58:21;8.60;;;2.10;;
68910;SDS011;55953;51.650;-0.522;2023-05-23T07:00:52;4.90;;;1.80;;
68910;SDS011;55953;51.650;-0.522;2023-05-23T07:03:24;6.90;;;1.70;;
68910;SDS011;55953;51.650;-0.522;2023-05-23T07:05:53;7.50;;;2.10;;
68910;SDS011;55953;51.650;-0.522;2023-05-23T07:08:22;5.30;;;1.80;;
68910;SDS011;55953;51.650;-0.522;2023-05-23T07:11:08;9.30;;;2.10;;
68910;SDS011;55953;51.650;-0.522;2023-05-23T07:13:39;8.60;;;2.10;;
68910;SDS011;55953;51.650;-0.522;2023-05-23T07:16:07;9.40;;;2.40;;
68910;SDS011;55953;51.650;-0.522;2023-05-23T07:18:39;6.40;;;1.80;;
68910;SDS011;55953;51.650;-0.522;2023-05-23T07:21:07;6.30;;;1.80;;
68910;SDS011;55953;51.650;-0.522;2023-05-23T07:23:37;6.40;;;1.60;;
68910;SDS011;55953;51.650;-0.522;2023-05-23T07:26:05;8.10;;;2.10;;
68910;SDS011;55953;51.650;-0.522;2023-05-23T07:28:57;7.70;;;1.90;;
68910;SDS011;55953;51.650;-0.522;2023-05-23T07:31:25;6.70;;;1.60;;
68910;SDS011;55953;51.650;-0.522;2023-05-23T07:33:56;7.40;;;2.00;;
68910;SDS011;55953;51.650;-0.522;2023-05-23T07:36:35;8.30;;;2.00;;
68910;SDS011;55953;51.650;-0.522;2023-05-23T07:39:05;9.50;;;2.70;;
68910;SDS011;55953;51.650;-0.522;2023-05-23T07:41:33;6.80;;;2.10;;
68910;SDS011;55953;51.650;-0.522;2023-05-23T07:44:01;6.90;;;2.30;;
68910;SDS011;55953;51.650;-0.522;2023-05-23T07:46:29;6.50;;;2.10;;
68910;SDS011;55953;51.650;-0.522;2023-05-23T07:48:57;8.20;;;1.80;;
68910;SDS011;55953;51.650;-0.522;2023-05-23T07:51:25;8.00;;;2.80;;
68910;SDS011;55953;51.650;-0.522;2023-05-23T07:53:54;12.20;;;2.20;;
68910;SDS011;55953;51.650;-0.522;2023-05-23T07:56:22;7.00;;;1.80;;
68910;SDS011;55953;51.650;-0.522;2023-05-23T07:58:50;7.80;;;2.10;;
68910;SDS011;55953;51.650;-0.522;2023-05-23T08:01:18;6.80;;;2.00;;
68910;SDS011;55953;51.650;-0.522;2023-05-23T08:04:02;5.20;;;1.90;;
68910;SDS011;55953;51.650;-0.522;2023-05-23T08:09:52;8.20;;;2.20;;
68910;SDS011;55953;51.650;-0.522;2023-05-23T08:12:20;7.10;;;2.20;;
68910;SDS011;55953;51.650;-0.522;2023-05-23T08:14:51;6.50;;;2.60;;
68910;SDS011;55953;51.650;-0.522;2023-05-23T08:17:23;7.70;;;2.30;;
68910;SDS011;55953;51.650;-0.522;2023-05-23T08:19:52;8.30;;;2.40;;
68910;SDS011;55953;51.650;-0.522;2023-05-23T08:22:19;6.70;;;2.30;;
68910;SDS011;55953;51.650;-0.522;2023-05-23T08:24:48;6.20;;;2.30;;
68910;SDS011;55953;51.650;-0.522;2023-05-23T08:27:16;10.10;;;2.20;;
68910;SDS011;55953;51.650;-0.522;2023-05-23T08:29:44;6.90;;;2.30;;
68910;SDS011;55953;51.650;-0.522;2023-05-23T08:32:13;6.40;;;2.20;;
68910;SDS011;55953;51.650;-0.522;2023-05-23T08:34:41;11.20;;;2.60;;
68910;SDS011;55953;51.650;-0.522;2023-05-23T08:37:08;9.40;;;2.70;;
68910;SDS011;55953;51.650;-0.522;2023-05-23T08:39:37;7.60;;;2.20;;
68910;SDS011;55953;51.650;-0.522;2023-05-23T08:42:23;7.40;;;2.40;;
68910;SDS011;55953;51.650;-0.522;2023-05-23T08:44:53;7.40;;;2.70;;
68910;SDS011;55953;51.650;-0.522;2023-05-23T08:47:21;6.20;;;2.30;;
68910;SDS011;55953;51.650;-0.522;2023-05-23T08:49:58;9.20;;;2.30;;
68910;SDS011;55953;51.650;-0.522;2023-05-23T08:52:29;8.20;;;2.30;;
68910;SDS011;55953;51.650;-0.522;2023-05-23T08:55:00;7.80;;;2.20;;
68910;SDS011;55953;51.650;-0.522;2023-05-23T08:57:29;6.40;;;2.10;;
68910;SDS011;55953;51.650;-0.522;2023-05-23T09:00:02;7.40;;;2.40;;
68910;SDS011;55953;51.650;-0.522;2023-05-23T09:02:37;8.60;;;2.20;;
68910;SDS011;55953;51.650;-0.522;2023-05-23T09:05:15;7.00;;;2.20;;
68910;SDS011;55953;51.650;-0.522;2023-05-23T09:07:45;4.80;;;1.90;;
68910;SDS011;55953;51.650;-0.522;2023-05-23T09:10:14;5.50;;;2.40;;
68910;SDS011;55953;51.650;-0.522;2023-05-23T09:12:43;5.80;;;2.10;;
68910;SDS011;55953;51.650;-0.522;2023-05-23T09:15:12;7.10;;;2.30;;
68910;SDS011;55953;51.650;-0.522;2023-05-23T09:17:40;7.30;;;2.10;;
68910;SDS011;55953;51.650;-0.522;2023-05-23T09:20:13;8.20;;;2.60;;
68910;SDS011;55953;51.650;-0.522;2023-05-23T09:22:48;7.70;;;2.20;;
68910;SDS011;55953;51.650;-0.522;2023-05-23T09:25:17;8.70;;;2.30;;
68910;SDS011;55953;51.650;-0.522;2023-05-23T09:27:46;6.00;;;2.20;;
68910;SDS011;55953;51.650;-0.522;2023-05-23T09:30:16;8.10;;;2.60;;
68910;SDS011;55953;51.650;-0.522;2023-05-23T09:32:58;12.00;;;2.60;;
68910;SDS011;55953;51.650;-0.522;2023-05-23T09:35:33;5.70;;;1.90;;
68910;SDS011;55953;51.650;-0.522;2023-05-23T09:38:00;7.60;;;2.80;;
68910;SDS011;55953;51.650;-0.522;2023-05-23T09:40:30;7.50;;;2.30;;
68910;SDS011;55953;51.650;-0.522;2023-05-23T09:48:01;5.50;;;1.90;;
68910;SDS011;55953;51.650;-0.522;2023-05-23T09:50:31;8.70;;;2.20;;
68910;SDS011;55953;51.650;-0.522;2023-05-23T09:53:01;8.00;;;2.60;;
68910;SDS011;55953;51.650;-0.522;2023-05-23T09:55:29;7.70;;;2.30;;
68910;SDS011;55953;51.650;-0.522;2023-05-23T09:57:58;10.90;;;2.90;;
68910;SDS011;55953;51.650;-0.522;2023-05-23T10:00:26;6.10;;;2.10;;
68910;SDS011;55953;51.650;-0.522;2023-05-23T10:03:09;7.80;;;2.10;;
68910;SDS011;55953;51.650;-0.522;2023-05-23T10:08:45;5.30;;;2.20;;
68910;SDS011;55953;51.650;-0.522;2023-05-23T10:14:05;9.50;;;2.40;;
68910;SDS011;55953;51.650;-0.522;2023-05-23T10:19:43;6.10;;;2.20;;
68910;SDS011;55953;51.650;-0.522;2023-05-23T10:22:25;9.50;;;2.50;;
68910;SDS011;55953;51.650;-0.522;2023-05-23T10:24:54;7.00;;;2.20;;
68910;SDS011;55953;51.650;-0.522;2023-05-23T10:27:22;7.80;;;2.40;;
68910;SDS011;55953;51.650;-0.522;2023-05-23T10:29:50;8.50;;;2.40;;
68910;SDS011;55953;51.650;-0.522;2023-05-23T10:32:18;6.30;;;2.40;;
68910;SDS011;55953;51.650;-0.522;2023-05-23T10:34:59;8.70;;;2.20;;
68910;SDS011;55953;51.650;-0.522;2023-05-23T10:40:36;8.10;;;2.20;;
68910;SDS011;55953;51.650;-0.522;2023-05-23T10:43:43;6.90;;;2.30;;
68910;SDS011;55953;51.650;-0.522;2023-05-23T10:47:00;8.10;;;2.50;;
68910;SDS011;55953;51.650;-0.522;2023-05-23T10:49:41;9.80;;;2.40;;
68910;SDS011;55953;51.650;-0.522;2023-05-23T10:52:15;5.10;;;2.10;;
68910;SDS011;55953;51.650;-0.522;2023-05-23T10:54:49;7.60;;;2.30;;
68910;SDS011;55953;51.650;-0.522;2023-05-23T10:57:20;5.50;;;1.90;;
68910;SDS011;55953;51.650;-0.522;2023-05-23T10:59:49;8.80;;;2.30;;
68910;SDS011;55953;51.650;-0.522;2023-05-23T11:02:24;8.40;;;2.40;;
68910;SDS011;55953;51.650;-0.522;2023-05-23T11:10:58;7.80;;;2.40;;
68910;SDS011;55953;51.650;-0.522;2023-05-23T11:13:53;7.70;;;2.40;;
68910;SDS011;55953;51.650;-0.522;2023-05-23T11:16:42;9.30;;;2.30;;
68910;SDS011;55953;51.650;-0.522;2023-05-23T11:21:56;9.60;;;2.00;;
68910;SDS011;55953;51.650;-0.522;2023-05-23T11:24:48;6.40;;;2.20;;
68910;SDS011;55953;51.650;-0.522;2023-05-23T11:27:33;11.10;;;2.50;;
68910;SDS011;55953;51.650;-0.522;2023-05-23T11:30:10;9.30;;;2.10;;
68910;SDS011;55953;51.650;-0.522;2023-05-23T11:32:52;11.80;;;3.60;;
68910;SDS011;55953;51.650;-0.522;2023-05-23T11:35:22;7.60;;;2.00;;
68910;SDS011;55953;51.650;-0.522;2023-05-23T11:37:51;6.50;;;2.00;;
68910;SDS011;55953;51.650;-0.522;2023-05-23T11:40:39;8.20;;;2.50;;
68910;SDS011;55953;51.650;-0.522;2023-05-23T11:43:13;7.10;;;2.00;;
68910;SDS011;55953;51.650;-0.522;2023-05-23T11:45:46;5.20;;;2.10;;
68910;SDS011;55953;51.650;-0.522;2023-05-23T11:48:15;7.20;;;2.30;;
68910;SDS011;55953;51.650;-0.522;2023-05-23T11:50:51;6.00;;;2.20;;
68910;SDS011;55953;51.650;-0.522;2023-05-23T11:53:21;7.50;;;2.20;;
68910;SDS011;55953;51.650;-0.522;2023-05-23T11:55:54;8.00;;;2.20;;
68910;SDS011;55953;51.650;-0.522;2023-05-23T11:58:26;8.70;;;2.70;;
68910;SDS011;55953;51.650;-0.522;2023-05-23T12:01:10;8.20;;;2.20;;
68910;SDS011;55953;51.650;-0.522;2023-05-23T12:03:46;6.90;;;2.10;;
68910;SDS011;55953;51.650;-0.522;2023-05-23T12:06:19;8.30;;;2.20;;
68910;SDS011;55953;51.650;-0.522;2023-05-23T12:08:53;5.10;;;2.10;;
68910;SDS011;55953;51.650;-0.522;2023-05-23T12:13:51;6.30;;;2.10;;
68910;SDS011;55953;51.650;-0.522;2023-05-23T12:16:19;8.40;;;2.70;;
68910;SDS011;55953;51.650;-0.522;2023-05-23T12:18:47;8.20;;;2.60;;
68910;SDS011;55953;51.650;-0.522;2023-05-23T12:21:15;4.70;;;2.00;;
68910;SDS011;55953;51.650;-0.522;2023-05-23T12:23:43;8.00;;;2.10;;
68910;SDS011;55953;51.650;-0.522;2023-05-23T12:26:11;6.90;;;2.30;;
68910;SDS011;55953;51.650;-0.522;2023-05-23T12:28:40;9.20;;;2.70;;
68910;SDS011;55953;51.650;-0.522;2023-05-23T12:31:14;8.80;;;2.60;;
68910;SDS011;55953;51.650;-0.522;2023-05-23T12:33:44;9.30;;;2.60;;
68910;SDS011;55953;51.650;-0.522;2023-05-23T12:36:20;6.10;;;2.40;;
68910;SDS011;55953;51.650;-0.522;2023-05-23T12:38:50;7.80;;;2.20;;
68910;SDS011;55953;51.650;-0.522;2023-05-23T12:41:19;7.80;;;2.30;;
68910;SDS011;55953;51.650;-0.522;2023-05-23T12:43:50;6.00;;;2.60;;
68910;SDS011;55953;51.650;-0.522;2023-05-23T12:46:20;6.40;;;2.00;;
68910;SDS011;55953;51.650;-0.522;2023-05-23T12:48:50;8.50;;;2.50;;
68910;SDS011;55953;51.650;-0.522;2023-05-23T12:51:19;6.60;;;2.30;;
68910;SDS011;55953;51.650;-0.522;2023-05-23T12:53:47;7.50;;;2.30;;
68910;SDS011;55953;51.650;-0.522;2023-05-23T12:56:15;6.50;;;2.40;;
68910;SDS011;55953;51.650;-0.522;2023-05-23T12:58:43;7.50;;;2.40;;
68910;SDS011;55953;51.650;-0.522;2023-05-23T13:01:11;7.10;;;2.20;;
68910;SDS011;55953;51.650;-0.522;2023-05-23T13:03:39;7.60;;;2.60;;
68910;SDS011;55953;51.650;-0.522;2023-05-23T13:06:07;6.70;;;2.30;;
68910;SDS011;55953;51.650;-0.522;2023-05-23T13:08:36;7.50;;;2.70;;
68910;SDS011;55953;51.650;-0.522;2023-05-23T13:11:04;7.00;;;2.70;;
68910;SDS011;55953;51.650;-0.522;2023-05-23T13:13:32;6.20;;;2.20;;
68910;SDS011;55953;51.650;-0.522;2023-05-23T13:16:00;7.20;;;2.50;;
68910;SDS011;55953;51.650;-0.522;2023-05-23T13:18:28;5.60;;;2.40;;
68910;SDS011;55953;51.650;-0.522;2023-05-23T13:20:56;8.70;;;2.50;;
68910;SDS011;55953;51.650;-0.522;2023-05-23T13:23:24;6.70;;;2.70;;
68910;SDS011;55953;51.650;-0.522;2023-05-23T13:25:52;7.60;;;2.80;;
68910;SDS011;55953;51.650;-0.522;2023-05-23T13:28:20;7.10;;;2.60;;
68910;SDS011;55953;51.650;-0.522;2023-05-23T13:30:49;7.10;;;2.70;;
68910;SDS011;55953;51.650;-0.522;2023-05-23T13:33:18;7.00;;;2.60;;
68910;SDS011;55953;51.650;-0.522;2023-05-23T13:35:46;8.20;;;2.50;;
68910;SDS011;55953;51.650;-0.522;2023-05-23T13:38:19;8.40;;;2.90;;
68910;SDS011;55953;51.650;-0.522;2023-05-23T13:40:48;8.10;;;2.70;;
68910;SDS011;55953;51.650;-0.522;2023-05-23T13:43:18;9.30;;;2.70;;
68910;SDS011;55953;51.650;-0.522;2023-05-23T13:45:46;10.00;;;2.80;;
68910;SDS011;55953;51.650;-0.522;2023-05-23T13:48:14;10.00;;;3.00;;
68910;SDS011;55953;51.650;-0.522;2023-05-23T13:50:42;5.30;;;2.50;;
68910;SDS011;55953;51.650;-0.522;2023-05-23T13:53:10;7.90;;;3.00;;
68910;SDS011;55953;51.650;-0.522;2023-05-23T13:55:41;7.90;;;2.90;;
68910;SDS011;55953;51.650;-0.522;2023-05-23T13:58:12;11.40;;;3.20;;
68910;SDS011;55953;51.650;-0.522;2023-05-23T14:00:40;8.60;;;3.40;;
68910;SDS011;55953;51.650;-0.522;2023-05-23T14:03:08;8.50;;;3.30;;
68910;SDS011;55953;51.650;-0.522;2023-05-23T14:05:37;9.70;;;3.00;;
68910;SDS011;55953;51.650;-0.522;2023-05-23T14:08:05;5.90;;;3.10;;
68910;SDS011;55953;51.650;-0.522;2023-05-23T14:10:33;8.00;;;3.30;;
68910;SDS011;55953;51.650;-0.522;2023-05-23T14:13:01;7.90;;;2.80;;
68910;SDS011;55953;51.650;-0.522;2023-05-23T14:15:29;8.80;;;3.30;;
68910;SDS011;55953;51.650;-0.522;2023-05-23T14:18:00;10.90;;;3.20;;
68910;SDS011;55953;51.650;-0.522;2023-05-23T14:20:29;8.30;;;3.20;;
68910;SDS011;55953;51.650;-0.522;2023-05-23T14:22:56;9.20;;;3.00;;
68910;SDS011;55953;51.650;-0.522;2023-05-23T14:25:24;9.10;;;3.00;;
68910;SDS011;55953;51.650;-0.522;2023-05-23T14:27:52;9.90;;;3.00;;
68910;SDS011;55953;51.650;-0.522;2023-05-23T14:30:20;8.80;;;3.20;;
68910;SDS011;55953;51.650;-0.522;2023-05-23T14:32:48;13.60;;;3.30;;
68910;SDS011;55953;51.650;-0.522;2023-05-23T14:35:16;7.50;;;2.70;;
68910;SDS011;55953;51.650;-0.522;2023-05-23T14:37:44;11.10;;;2.80;;
68910;SDS011;55953;51.650;-0.522;2023-05-23T14:40:13;9.90;;;3.10;;
68910;SDS011;55953;51.650;-0.522;2023-05-23T14:42:42;5.80;;;2.70;;
68910;SDS011;55953;51.650;-0.522;2023-05-23T14:45:10;7.90;;;2.90;;
68910;SDS011;55953;51.650;-0.522;2023-05-23T14:47:38;9.30;;;2.90;;
68910;SDS011;55953;51.650;-0.522;2023-05-23T14:50:07;6.80;;;2.40;;
68910;SDS011;55953;51.650;-0.522;2023-05-23T14:52:35;5.50;;;2.80;;
68910;SDS011;55953;51.650;-0.522;2023-05-23T14:55:03;7.00;;;2.90;;
68910;SDS011;55953;51.650;-0.522;2023-05-23T14:57:31;8.60;;;2.40;;
68910;SDS011;55953;51.650;-0.522;2023-05-23T14:59:59;6.70;;;2.50;;
68910;SDS011;55953;51.650;-0.522;2023-05-23T15:02:30;5.30;;;2.10;;
68910;SDS011;55953;51.650;-0.522;2023-05-23T15:04:58;6.00;;;2.30;;
68910;SDS011;55953;51.650;-0.522;2023-05-23T15:07:27;8.60;;;2.50;;
68910;SDS011;55953;51.650;-0.522;2023-05-23T15:09:55;7.40;;;2.70;;
68910;SDS011;55953;51.650;-0.522;2023-05-23T15:12:23;6.90;;;2.70;;
68910;SDS011;55953;51.650;-0.522;2023-05-23T15:14:52;5.90;;;2.50;;
68910;SDS011;55953;51.650;-0.522;2023-05-23T15:17:20;6.60;;;2.50;;
68910;SDS011;55953;51.650;-0.522;2023-05-23T15:19:52;6.00;;;2.30;;
68910;SDS011;55953;51.650;-0.522;2023-05-23T15:22:24;8.00;;;3.00;;
68910;SDS011;55953;51.650;-0.522;2023-05-23T15:24:57;6.20;;;2.30;;
68910;SDS011;55953;51.650;-0.522;2023-05-23T15:27:27;7.30;;;2.50;;
68910;SDS011;55953;51.650;-0.522;2023-05-23T15:29:55;6.70;;;2.50;;